sensor_id;sensor_type;location;lat;lon;timestamp;P1;durP1;ratioP1;P2;durP2;ratioP2
20084;SDS011;10202;48.474;9.138;2022-08-01T00:00:09;5.03;;;1.90;;
20084;SDS011;10202;48.474;9.138;2022-08-01T00:02:36;1.63;;;1.42;;
20084;SDS011;10202;48.474;9.138;2022-08-01T00:05:05;1.50;;;1.40;;
20084;SDS011;10202;48.474;9.138;2022-08-01T00:07:33;2.28;;;1.65;;
20084;SDS011;10202;48.474;9.138;2022-08-01T00:09:59;4.28;;;1.83;;
20084;SDS011;10202;48.474;9.138;2022-08-01T00:12:25;1.65;;;1.55;;
20084;SDS011;10202;48.474;9.138;2022-08-01T00:14:50;1.60;;;1.50;;
20084;SDS011;10202;48.474;9.138;2022-08-01T00:17:15;1.95;;;1.60;;
20084;SDS011;10202;48.474;9.138;2022-08-01T00:19:41;2.70;;;1.70;;
20084;SDS011;10202;48.474;9.138;2022-08-01T00:22:07;4.03;;;1.70;;
20084;SDS011;10202;48.474;9.138;2022-08-01T00:24:32;1.80;;;1.70;;
20084;SDS011;10202;48.474;9.138;2022-08-01T00:26:58;2.22;;;1.70;;
20084;SDS011;10202;48.474;9.138;2022-08-01T00:29:23;3.30;;;1.83;;
20084;SDS011;10202;48.474;9.138;2022-08-01T00:31:49;1.98;;;1.48;;
20084;SDS011;10202;48.474;9.138;2022-08-01T00:34:14;3.03;;;1.80;;
20084;SDS011;10202;48.474;9.138;2022-08-01T00:36:40;1.85;;;1.58;;
20084;SDS011;10202;48.474;9.138;2022-08-01T00:39:05;7.45;;;1.50;;
20084;SDS011;10202;48.474;9.138;2022-08-01T00:41:31;1.60;;;1.50;;
20084;SDS011;10202;48.474;9.138;2022-08-01T00:43:56;3.95;;;1.80;;
20084;SDS011;10202;48.474;9.138;2022-08-01T00:46:22;1.85;;;1.50;;
20084;SDS011;10202;48.474;9.138;2022-08-01T00:48:47;1.92;;;1.60;;
20084;SDS011;10202;48.474;9.138;2022-08-01T00:51:13;1.60;;;1.50;;
20084;SDS011;10202;48.474;9.138;2022-08-01T00:53:38;3.78;;;1.88;;
20084;SDS011;10202;48.474;9.138;2022-08-01T00:56:04;2.75;;;1.90;;
20084;SDS011;10202;48.474;9.138;2022-08-01T00:58:30;1.80;;;1.70;;
20084;SDS011;10202;48.474;9.138;2022-08-01T01:00:57;2.22;;;2.03;;
20084;SDS011;10202;48.474;9.138;2022-08-01T01:03:23;5.25;;;1.88;;
20084;SDS011;10202;48.474;9.138;2022-08-01T01:05:57;1.70;;;1.60;;
20084;SDS011;10202;48.474;9.138;2022-08-01T01:08:39;2.03;;;1.77;;
20084;SDS011;10202;48.474;9.138;2022-08-01T01:11:10;2.42;;;1.50;;
20084;SDS011;10202;48.474;9.138;2022-08-01T01:13:47;2.97;;;1.77;;
20084;SDS011;10202;48.474;9.138;2022-08-01T01:16:15;2.40;;;1.75;;
20084;SDS011;10202;48.474;9.138;2022-08-01T01:18:45;3.80;;;1.65;;
20084;SDS011;10202;48.474;9.138;2022-08-01T01:26:43;2.38;;;1.70;;
20084;SDS011;10202;48.474;9.138;2022-08-01T01:29:16;3.33;;;1.65;;
20084;SDS011;10202;48.474;9.138;2022-08-01T01:31:46;6.28;;;1.83;;
20084;SDS011;10202;48.474;9.138;2022-08-01T01:34:17;1.90;;;1.80;;
20084;SDS011;10202;48.474;9.138;2022-08-01T01:36:44;1.85;;;1.63;;
20084;SDS011;10202;48.474;9.138;2022-08-01T01:39:11;2.05;;;1.80;;
20084;SDS011;10202;48.474;9.138;2022-08-01T01:41:39;4.80;;;2.00;;
20084;SDS011;10202;48.474;9.138;2022-08-01T01:44:05;4.75;;;1.60;;
20084;SDS011;10202;48.474;9.138;2022-08-01T01:46:32;4.28;;;2.00;;
20084;SDS011;10202;48.474;9.138;2022-08-01T01:48:57;1.80;;;1.70;;
20084;SDS011;10202;48.474;9.138;2022-08-01T01:51:24;1.95;;;1.70;;
20084;SDS011;10202;48.474;9.138;2022-08-01T01:53:51;3.05;;;2.00;;
20084;SDS011;10202;48.474;9.138;2022-08-01T01:56:18;2.22;;;1.88;;
20084;SDS011;10202;48.474;9.138;2022-08-01T01:58:43;2.30;;;1.90;;
20084;SDS011;10202;48.474;9.138;2022-08-01T02:01:09;5.85;;;2.03;;
20084;SDS011;10202;48.474;9.138;2022-08-01T02:03:36;1.65;;;1.55;;
20084;SDS011;10202;48.474;9.138;2022-08-01T02:06:03;2.05;;;1.70;;
20084;SDS011;10202;48.474;9.138;2022-08-01T02:08:29;3.33;;;1.90;;
20084;SDS011;10202;48.474;9.138;2022-08-01T02:10:56;2.00;;;1.80;;
20084;SDS011;10202;48.474;9.138;2022-08-01T02:13:41;3.13;;;2.05;;
20084;SDS011;10202;48.474;9.138;2022-08-01T02:16:06;1.95;;;1.83;;
20084;SDS011;10202;48.474;9.138;2022-08-01T02:18:33;14.23;;;1.98;;
20084;SDS011;10202;48.474;9.138;2022-08-01T02:20:59;4.75;;;2.15;;
20084;SDS011;10202;48.474;9.138;2022-08-01T02:23:28;1.85;;;1.75;;
20084;SDS011;10202;48.474;9.138;2022-08-01T02:26:00;4.05;;;2.25;;
20084;SDS011;10202;48.474;9.138;2022-08-01T02:28:29;2.78;;;2.05;;
20084;SDS011;10202;48.474;9.138;2022-08-01T02:30:59;4.03;;;1.92;;
20084;SDS011;10202;48.474;9.138;2022-08-01T02:33:27;2.22;;;2.00;;
20084;SDS011;10202;48.474;9.138;2022-08-01T02:36:01;2.33;;;2.13;;
20084;SDS011;10202;48.474;9.138;2022-08-01T02:38:29;4.05;;;2.28;;
20084;SDS011;10202;48.474;9.138;2022-08-01T02:40:57;3.38;;;2.00;;
20084;SDS011;10202;48.474;9.138;2022-08-01T02:43:26;2.55;;;2.17;;
20084;SDS011;10202;48.474;9.138;2022-08-01T02:45:54;2.58;;;2.15;;
20084;SDS011;10202;48.474;9.138;2022-08-01T02:48:21;3.40;;;2.15;;
20084;SDS011;10202;48.474;9.138;2022-08-01T02:50:49;2.92;;;2.10;;
20084;SDS011;10202;48.474;9.138;2022-08-01T02:53:18;4.03;;;2.20;;
20084;SDS011;10202;48.474;9.138;2022-08-01T02:55:44;2.70;;;1.90;;
20084;SDS011;10202;48.474;9.138;2022-08-01T02:58:14;6.78;;;2.10;;
20084;SDS011;10202;48.474;9.138;2022-08-01T03:00:41;3.90;;;2.00;;
20084;SDS011;10202;48.474;9.138;2022-08-01T03:03:07;4.35;;;2.13;;
20084;SDS011;10202;48.474;9.138;2022-08-01T03:05:33;5.15;;;2.25;;
20084;SDS011;10202;48.474;9.138;2022-08-01T03:08:00;5.00;;;2.30;;
20084;SDS011;10202;48.474;9.138;2022-08-01T03:10:29;2.90;;;2.05;;
20084;SDS011;10202;48.474;9.138;2022-08-01T03:12:56;5.10;;;2.10;;
20084;SDS011;10202;48.474;9.138;2022-08-01T03:15:22;2.85;;;2.13;;
20084;SDS011;10202;48.474;9.138;2022-08-01T03:17:48;2.30;;;2.05;;
20084;SDS011;10202;48.474;9.138;2022-08-01T03:20:15;2.45;;;2.22;;
20084;SDS011;10202;48.474;9.138;2022-08-01T03:22:42;2.35;;;2.15;;
20084;SDS011;10202;48.474;9.138;2022-08-01T03:25:09;2.50;;;2.20;;
20084;SDS011;10202;48.474;9.138;2022-08-01T03:27:36;4.00;;;2.35;;
20084;SDS011;10202;48.474;9.138;2022-08-01T03:30:02;4.30;;;2.17;;
20084;SDS011;10202;48.474;9.138;2022-08-01T03:32:30;2.30;;;2.10;;
20084;SDS011;10202;48.474;9.138;2022-08-01T03:34:55;2.13;;;1.92;;
20084;SDS011;10202;48.474;9.138;2022-08-01T03:37:36;2.17;;;2.05;;
20084;SDS011;10202;48.474;9.138;2022-08-01T03:40:07;2.22;;;1.90;;
20084;SDS011;10202;48.474;9.138;2022-08-01T03:42:36;2.50;;;2.30;;
20084;SDS011;10202;48.474;9.138;2022-08-01T03:45:10;2.63;;;1.98;;
20084;SDS011;10202;48.474;9.138;2022-08-01T03:47:42;3.92;;;2.40;;
20084;SDS011;10202;48.474;9.138;2022-08-01T03:50:08;3.65;;;2.08;;
20084;SDS011;10202;48.474;9.138;2022-08-01T03:52:35;2.42;;;2.15;;
20084;SDS011;10202;48.474;9.138;2022-08-01T03:55:04;2.95;;;2.17;;
20084;SDS011;10202;48.474;9.138;2022-08-01T03:57:32;4.25;;;2.20;;
20084;SDS011;10202;48.474;9.138;2022-08-01T03:59:58;2.42;;;2.22;;
20084;SDS011;10202;48.474;9.138;2022-08-01T04:02:25;3.33;;;2.30;;
20084;SDS011;10202;48.474;9.138;2022-08-01T04:04:52;2.65;;;2.25;;
20084;SDS011;10202;48.474;9.138;2022-08-01T04:07:25;2.58;;;2.30;;
20084;SDS011;10202;48.474;9.138;2022-08-01T04:09:51;3.20;;;2.60;;
20084;SDS011;10202;48.474;9.138;2022-08-01T04:12:17;3.10;;;2.20;;
20084;SDS011;10202;48.474;9.138;2022-08-01T04:14:43;4.40;;;2.50;;
20084;SDS011;10202;48.474;9.138;2022-08-01T04:17:08;2.63;;;2.30;;
20084;SDS011;10202;48.474;9.138;2022-08-01T04:19:34;2.45;;;2.15;;
20084;SDS011;10202;48.474;9.138;2022-08-01T04:21:59;4.45;;;2.72;;
20084;SDS011;10202;48.474;9.138;2022-08-01T04:24:25;4.20;;;2.42;;
20084;SDS011;10202;48.474;9.138;2022-08-01T04:26:52;3.13;;;2.30;;
20084;SDS011;10202;48.474;9.138;2022-08-01T04:29:18;3.95;;;2.17;;
20084;SDS011;10202;48.474;9.138;2022-08-01T04:31:45;4.97;;;2.40;;
20084;SDS011;10202;48.474;9.138;2022-08-01T04:34:12;3.08;;;2.45;;
20084;SDS011;10202;48.474;9.138;2022-08-01T04:36:39;2.60;;;2.40;;
20084;SDS011;10202;48.474;9.138;2022-08-01T04:39:07;2.80;;;2.45;;
20084;SDS011;10202;48.474;9.138;2022-08-01T04:41:33;5.18;;;2.30;;
20084;SDS011;10202;48.474;9.138;2022-08-01T04:44:01;3.90;;;2.47;;
20084;SDS011;10202;48.474;9.138;2022-08-01T04:46:27;3.92;;;2.30;;
20084;SDS011;10202;48.474;9.138;2022-08-01T04:48:53;3.53;;;2.40;;
20084;SDS011;10202;48.474;9.138;2022-08-01T04:51:20;3.47;;;2.47;;
20084;SDS011;10202;48.474;9.138;2022-08-01T04:53:47;3.25;;;2.80;;
20084;SDS011;10202;48.474;9.138;2022-08-01T04:56:13;6.80;;;2.72;;
20084;SDS011;10202;48.474;9.138;2022-08-01T04:58:43;4.85;;;2.70;;
20084;SDS011;10202;48.474;9.138;2022-08-01T05:01:09;2.70;;;2.50;;
20084;SDS011;10202;48.474;9.138;2022-08-01T05:03:35;3.60;;;2.45;;
20084;SDS011;10202;48.474;9.138;2022-08-01T05:06:01;4.60;;;2.80;;
20084;SDS011;10202;48.474;9.138;2022-08-01T05:08:26;3.83;;;2.78;;
20084;SDS011;10202;48.474;9.138;2022-08-01T05:10:52;3.80;;;2.50;;
20084;SDS011;10202;48.474;9.138;2022-08-01T05:13:18;3.50;;;2.90;;
20084;SDS011;10202;48.474;9.138;2022-08-01T05:15:44;3.72;;;2.70;;
20084;SDS011;10202;48.474;9.138;2022-08-01T05:29:02;6.68;;;2.63;;
20084;SDS011;10202;48.474;9.138;2022-08-01T05:31:31;5.03;;;3.00;;
20084;SDS011;10202;48.474;9.138;2022-08-01T05:34:02;3.42;;;2.65;;
20084;SDS011;10202;48.474;9.138;2022-08-01T05:36:28;3.33;;;2.70;;
20084;SDS011;10202;48.474;9.138;2022-08-01T05:38:53;4.55;;;2.80;;
20084;SDS011;10202;48.474;9.138;2022-08-01T05:41:19;6.65;;;2.95;;
20084;SDS011;10202;48.474;9.138;2022-08-01T05:43:45;2.97;;;2.67;;
20084;SDS011;10202;48.474;9.138;2022-08-01T05:46:10;3.92;;;2.65;;
20084;SDS011;10202;48.474;9.138;2022-08-01T05:48:36;9.38;;;3.08;;
20084;SDS011;10202;48.474;9.138;2022-08-01T05:51:01;4.10;;;2.70;;
20084;SDS011;10202;48.474;9.138;2022-08-01T05:53:27;5.95;;;3.03;;
20084;SDS011;10202;48.474;9.138;2022-08-01T05:55:53;3.38;;;2.90;;
20084;SDS011;10202;48.474;9.138;2022-08-01T05:58:18;4.13;;;2.90;;
20084;SDS011;10202;48.474;9.138;2022-08-01T06:00:44;3.40;;;3.10;;
20084;SDS011;10202;48.474;9.138;2022-08-01T06:03:09;4.10;;;2.85;;
20084;SDS011;10202;48.474;9.138;2022-08-01T06:05:36;2.90;;;2.60;;
20084;SDS011;10202;48.474;9.138;2022-08-01T06:08:02;6.28;;;3.00;;
20084;SDS011;10202;48.474;9.138;2022-08-01T06:10:28;2.97;;;2.58;;
20084;SDS011;10202;48.474;9.138;2022-08-01T06:12:54;3.38;;;2.75;;
20084;SDS011;10202;48.474;9.138;2022-08-01T06:15:19;9.75;;;2.80;;
20084;SDS011;10202;48.474;9.138;2022-08-01T06:17:45;3.50;;;2.97;;
20084;SDS011;10202;48.474;9.138;2022-08-01T06:20:10;3.25;;;2.95;;
20084;SDS011;10202;48.474;9.138;2022-08-01T06:22:36;3.00;;;2.70;;
20084;SDS011;10202;48.474;9.138;2022-08-01T06:25:01;2.90;;;2.60;;
20084;SDS011;10202;48.474;9.138;2022-08-01T06:27:27;2.88;;;2.65;;
20084;SDS011;10202;48.474;9.138;2022-08-01T06:29:52;4.18;;;2.85;;
20084;SDS011;10202;48.474;9.138;2022-08-01T06:32:21;4.75;;;3.10;;
20084;SDS011;10202;48.474;9.138;2022-08-01T06:34:51;2.78;;;2.58;;
20084;SDS011;10202;48.474;9.138;2022-08-01T06:37:17;3.42;;;2.53;;
20084;SDS011;10202;48.474;9.138;2022-08-01T06:39:42;2.47;;;2.28;;
20084;SDS011;10202;48.474;9.138;2022-08-01T06:42:08;2.60;;;2.40;;
20084;SDS011;10202;48.474;9.138;2022-08-01T06:44:34;2.55;;;2.35;;
20084;SDS011;10202;48.474;9.138;2022-08-01T06:47:00;6.13;;;2.75;;
20084;SDS011;10202;48.474;9.138;2022-08-01T06:49:25;3.20;;;2.53;;
20084;SDS011;10202;48.474;9.138;2022-08-01T06:51:51;3.67;;;2.90;;
20084;SDS011;10202;48.474;9.138;2022-08-01T06:54:16;3.85;;;2.40;;
20084;SDS011;10202;48.474;9.138;2022-08-01T06:56:42;3.08;;;2.80;;
20084;SDS011;10202;48.474;9.138;2022-08-01T06:59:09;2.83;;;2.40;;
20084;SDS011;10202;48.474;9.138;2022-08-01T07:01:35;3.80;;;2.85;;
20084;SDS011;10202;48.474;9.138;2022-08-01T07:04:00;3.00;;;2.38;;
20084;SDS011;10202;48.474;9.138;2022-08-01T07:06:26;2.80;;;2.60;;
20084;SDS011;10202;48.474;9.138;2022-08-01T07:08:52;2.67;;;2.40;;
20084;SDS011;10202;48.474;9.138;2022-08-01T07:11:18;2.80;;;2.50;;
20084;SDS011;10202;48.474;9.138;2022-08-01T07:13:44;4.68;;;2.75;;
20084;SDS011;10202;48.474;9.138;2022-08-01T07:16:11;2.88;;;2.58;;
20084;SDS011;10202;48.474;9.138;2022-08-01T07:18:37;3.95;;;2.53;;
20084;SDS011;10202;48.474;9.138;2022-08-01T07:21:02;4.30;;;2.58;;
20084;SDS011;10202;48.474;9.138;2022-08-01T07:23:28;2.70;;;2.50;;
20084;SDS011;10202;48.474;9.138;2022-08-01T07:25:53;4.85;;;2.70;;
20084;SDS011;10202;48.474;9.138;2022-08-01T07:28:19;2.75;;;2.47;;
20084;SDS011;10202;48.474;9.138;2022-08-01T07:30:45;4.07;;;2.45;;
20084;SDS011;10202;48.474;9.138;2022-08-01T07:33:10;2.88;;;2.58;;
20084;SDS011;10202;48.474;9.138;2022-08-01T07:35:36;2.92;;;2.53;;
20084;SDS011;10202;48.474;9.138;2022-08-01T07:38:07;4.43;;;2.40;;
20084;SDS011;10202;48.474;9.138;2022-08-01T07:40:33;4.40;;;2.53;;
20084;SDS011;10202;48.474;9.138;2022-08-01T07:42:59;4.35;;;2.58;;
20084;SDS011;10202;48.474;9.138;2022-08-01T07:45:24;2.60;;;2.40;;
20084;SDS011;10202;48.474;9.138;2022-08-01T07:47:51;3.17;;;2.17;;
20084;SDS011;10202;48.474;9.138;2022-08-01T07:50:17;3.72;;;2.00;;
20084;SDS011;10202;48.474;9.138;2022-08-01T07:52:43;2.38;;;2.17;;
20084;SDS011;10202;48.474;9.138;2022-08-01T07:55:09;2.33;;;2.13;;
20084;SDS011;10202;48.474;9.138;2022-08-01T07:57:36;3.15;;;2.28;;
20084;SDS011;10202;48.474;9.138;2022-08-01T08:00:02;2.03;;;1.92;;
20084;SDS011;10202;48.474;9.138;2022-08-01T08:02:29;3.17;;;2.45;;
20084;SDS011;10202;48.474;9.138;2022-08-01T08:04:54;5.25;;;2.40;;
20084;SDS011;10202;48.474;9.138;2022-08-01T08:07:20;4.90;;;2.30;;
20084;SDS011;10202;48.474;9.138;2022-08-01T08:09:45;6.10;;;2.60;;
20084;SDS011;10202;48.474;9.138;2022-08-01T08:12:11;3.60;;;2.70;;
20084;SDS011;10202;48.474;9.138;2022-08-01T08:14:37;3.10;;;2.80;;
20084;SDS011;10202;48.474;9.138;2022-08-01T08:17:03;2.90;;;2.40;;
20084;SDS011;10202;48.474;9.138;2022-08-01T08:19:29;2.92;;;2.20;;
20084;SDS011;10202;48.474;9.138;2022-08-01T08:21:54;3.03;;;2.40;;
20084;SDS011;10202;48.474;9.138;2022-08-01T08:24:20;3.13;;;2.67;;
20084;SDS011;10202;48.474;9.138;2022-08-01T08:26:46;4.50;;;2.47;;
20084;SDS011;10202;48.474;9.138;2022-08-01T08:29:15;2.60;;;2.40;;
20084;SDS011;10202;48.474;9.138;2022-08-01T08:31:41;3.65;;;2.30;;
20084;SDS011;10202;48.474;9.138;2022-08-01T08:34:07;3.17;;;2.25;;
20084;SDS011;10202;48.474;9.138;2022-08-01T08:36:33;2.95;;;2.20;;
20084;SDS011;10202;48.474;9.138;2022-08-01T08:38:58;2.60;;;2.30;;
20084;SDS011;10202;48.474;9.138;2022-08-01T08:41:31;5.10;;;2.53;;
20084;SDS011;10202;48.474;9.138;2022-08-01T08:43:57;2.95;;;2.22;;
20084;SDS011;10202;48.474;9.138;2022-08-01T08:46:25;2.63;;;2.42;;
20084;SDS011;10202;48.474;9.138;2022-08-01T08:48:51;5.07;;;2.40;;
20084;SDS011;10202;48.474;9.138;2022-08-01T08:51:17;7.28;;;2.50;;
20084;SDS011;10202;48.474;9.138;2022-08-01T08:53:43;4.10;;;2.20;;
20084;SDS011;10202;48.474;9.138;2022-08-01T08:56:10;5.15;;;2.65;;
20084;SDS011;10202;48.474;9.138;2022-08-01T08:58:37;5.10;;;2.30;;
20084;SDS011;10202;48.474;9.138;2022-08-01T09:01:06;3.22;;;2.50;;
20084;SDS011;10202;48.474;9.138;2022-08-01T09:03:34;3.47;;;2.53;;
20084;SDS011;10202;48.474;9.138;2022-08-01T09:05:59;4.30;;;2.50;;
20084;SDS011;10202;48.474;9.138;2022-08-01T09:08:25;3.40;;;2.60;;
20084;SDS011;10202;48.474;9.138;2022-08-01T09:10:51;3.50;;;2.50;;
20084;SDS011;10202;48.474;9.138;2022-08-01T09:13:16;3.70;;;2.60;;
20084;SDS011;10202;48.474;9.138;2022-08-01T09:18:24;2.50;;;2.30;;
20084;SDS011;10202;48.474;9.138;2022-08-01T09:23:53;7.00;;;2.45;;
20084;SDS011;10202;48.474;9.138;2022-08-01T09:26:19;3.28;;;2.45;;
20084;SDS011;10202;48.474;9.138;2022-08-01T09:28:58;3.65;;;2.50;;
20084;SDS011;10202;48.474;9.138;2022-08-01T09:31:25;7.13;;;2.75;;
20084;SDS011;10202;48.474;9.138;2022-08-01T09:36:45;5.05;;;3.00;;
20084;SDS011;10202;48.474;9.138;2022-08-01T09:39:31;3.15;;;2.60;;
20084;SDS011;10202;48.474;9.138;2022-08-01T09:42:19;4.68;;;2.50;;
20084;SDS011;10202;48.474;9.138;2022-08-01T09:44:46;3.50;;;2.47;;
20084;SDS011;10202;48.474;9.138;2022-08-01T09:47:13;4.35;;;2.50;;
20084;SDS011;10202;48.474;9.138;2022-08-01T09:49:39;2.72;;;2.50;;
20084;SDS011;10202;48.474;9.138;2022-08-01T09:54:39;2.95;;;2.53;;
20084;SDS011;10202;48.474;9.138;2022-08-01T09:57:08;2.85;;;2.47;;
20084;SDS011;10202;48.474;9.138;2022-08-01T09:59:48;4.03;;;2.90;;
20084;SDS011;10202;48.474;9.138;2022-08-01T10:05:13;2.40;;;2.20;;
20084;SDS011;10202;48.474;9.138;2022-08-01T10:10:26;3.70;;;2.42;;
20084;SDS011;10202;48.474;9.138;2022-08-01T10:12:52;3.22;;;2.42;;
20084;SDS011;10202;48.474;9.138;2022-08-01T10:15:18;3.25;;;2.63;;
20084;SDS011;10202;48.474;9.138;2022-08-01T10:17:55;3.60;;;2.70;;
20084;SDS011;10202;48.474;9.138;2022-08-01T10:20:23;2.75;;;2.55;;
20084;SDS011;10202;48.474;9.138;2022-08-01T10:22:52;3.55;;;2.50;;
20084;SDS011;10202;48.474;9.138;2022-08-01T10:25:19;2.88;;;2.58;;
20084;SDS011;10202;48.474;9.138;2022-08-01T10:27:45;2.97;;;2.50;;
20084;SDS011;10202;48.474;9.138;2022-08-01T10:30:14;6.82;;;2.38;;
20084;SDS011;10202;48.474;9.138;2022-08-01T10:32:40;3.33;;;2.60;;
20084;SDS011;10202;48.474;9.138;2022-08-01T10:35:08;3.17;;;2.33;;
20084;SDS011;10202;48.474;9.138;2022-08-01T10:37:34;2.60;;;2.40;;
20084;SDS011;10202;48.474;9.138;2022-08-01T10:40:03;3.60;;;2.50;;
20084;SDS011;10202;48.474;9.138;2022-08-01T10:42:31;2.88;;;2.53;;
20084;SDS011;10202;48.474;9.138;2022-08-01T10:44:57;2.78;;;2.25;;
20084;SDS011;10202;48.474;9.138;2022-08-01T10:47:27;3.00;;;2.40;;
20084;SDS011;10202;48.474;9.138;2022-08-01T10:50:33;2.92;;;2.10;;
20084;SDS011;10202;48.474;9.138;2022-08-01T10:53:04;3.92;;;2.50;;
20084;SDS011;10202;48.474;9.138;2022-08-01T10:55:44;2.67;;;2.47;;
20084;SDS011;10202;48.474;9.138;2022-08-01T10:58:13;3.33;;;2.40;;
20084;SDS011;10202;48.474;9.138;2022-08-01T11:00:39;3.60;;;1.95;;
20084;SDS011;10202;48.474;9.138;2022-08-01T11:03:04;6.47;;;2.40;;
20084;SDS011;10202;48.474;9.138;2022-08-01T11:05:31;6.18;;;2.22;;
20084;SDS011;10202;48.474;9.138;2022-08-01T11:08:01;2.30;;;2.10;;
20084;SDS011;10202;48.474;9.138;2022-08-01T11:13:09;2.55;;;2.35;;
20084;SDS011;10202;48.474;9.138;2022-08-01T11:15:39;2.97;;;2.33;;
20084;SDS011;10202;48.474;9.138;2022-08-01T11:21:14;4.03;;;3.00;;
20084;SDS011;10202;48.474;9.138;2022-08-01T11:23:46;5.63;;;2.35;;
20084;SDS011;10202;48.474;9.138;2022-08-01T11:26:13;5.00;;;2.20;;
20084;SDS011;10202;48.474;9.138;2022-08-01T11:28:40;8.65;;;3.17;;
20084;SDS011;10202;48.474;9.138;2022-08-01T11:38:48;4.10;;;3.20;;
20084;SDS011;10202;48.474;9.138;2022-08-01T11:41:35;3.05;;;2.75;;
20084;SDS011;10202;48.474;9.138;2022-08-01T11:52:11;5.13;;;2.63;;
20084;SDS011;10202;48.474;9.138;2022-08-01T11:55:07;3.17;;;2.58;;
20084;SDS011;10202;48.474;9.138;2022-08-01T11:57:34;2.67;;;2.47;;
20084;SDS011;10202;48.474;9.138;2022-08-01T12:00:11;4.68;;;2.80;;
20084;SDS011;10202;48.474;9.138;2022-08-01T12:02:39;4.05;;;2.63;;
20084;SDS011;10202;48.474;9.138;2022-08-01T12:05:06;3.03;;;2.72;;
20084;SDS011;10202;48.474;9.138;2022-08-01T12:07:33;5.45;;;3.00;;
20084;SDS011;10202;48.474;9.138;2022-08-01T12:10:04;3.92;;;2.70;;
20084;SDS011;10202;48.474;9.138;2022-08-01T12:12:30;5.32;;;2.80;;
20084;SDS011;10202;48.474;9.138;2022-08-01T12:14:58;3.10;;;2.65;;
20084;SDS011;10202;48.474;9.138;2022-08-01T12:19:55;4.85;;;2.83;;
20084;SDS011;10202;48.474;9.138;2022-08-01T12:22:21;4.35;;;2.72;;
20084;SDS011;10202;48.474;9.138;2022-08-01T12:24:47;2.97;;;2.67;;
20084;SDS011;10202;48.474;9.138;2022-08-01T12:27:13;4.30;;;3.08;;
20084;SDS011;10202;48.474;9.138;2022-08-01T12:29:49;4.57;;;3.28;;
20084;SDS011;10202;48.474;9.138;2022-08-01T12:36:01;3.05;;;2.75;;
20084;SDS011;10202;48.474;9.138;2022-08-01T12:38:27;5.55;;;2.90;;
20084;SDS011;10202;48.474;9.138;2022-08-01T12:40:53;4.20;;;3.05;;
20084;SDS011;10202;48.474;9.138;2022-08-01T12:43:19;4.45;;;3.10;;
20084;SDS011;10202;48.474;9.138;2022-08-01T12:45:46;5.03;;;3.10;;
20084;SDS011;10202;48.474;9.138;2022-08-01T12:48:14;3.80;;;3.15;;
20084;SDS011;10202;48.474;9.138;2022-08-01T12:50:42;3.55;;;3.22;;
20084;SDS011;10202;48.474;9.138;2022-08-01T12:53:09;3.72;;;3.33;;
20084;SDS011;10202;48.474;9.138;2022-08-01T12:55:49;6.22;;;2.90;;
20084;SDS011;10202;48.474;9.138;2022-08-01T12:58:19;3.60;;;3.28;;
20084;SDS011;10202;48.474;9.138;2022-08-01T13:00:45;5.03;;;2.72;;
20084;SDS011;10202;48.474;9.138;2022-08-01T13:05:46;4.30;;;3.20;;
20084;SDS011;10202;48.474;9.138;2022-08-01T13:08:17;3.17;;;2.88;;
20084;SDS011;10202;48.474;9.138;2022-08-01T13:10:46;3.60;;;3.03;;
20084;SDS011;10202;48.474;9.138;2022-08-01T13:13:13;3.88;;;3.13;;
20084;SDS011;10202;48.474;9.138;2022-08-01T13:15:40;6.82;;;3.22;;
20084;SDS011;10202;48.474;9.138;2022-08-01T13:24:09;3.40;;;3.10;;
20084;SDS011;10202;48.474;9.138;2022-08-01T13:26:39;3.60;;;3.20;;
20084;SDS011;10202;48.474;9.138;2022-08-01T13:29:11;3.60;;;3.30;;
20084;SDS011;10202;48.474;9.138;2022-08-01T13:31:37;5.93;;;3.38;;
20084;SDS011;10202;48.474;9.138;2022-08-01T13:34:04;3.65;;;3.30;;
20084;SDS011;10202;48.474;9.138;2022-08-01T13:36:30;5.97;;;3.45;;
20084;SDS011;10202;48.474;9.138;2022-08-01T13:39:00;3.95;;;3.42;;
20084;SDS011;10202;48.474;9.138;2022-08-01T13:41:45;3.63;;;3.05;;
20084;SDS011;10202;48.474;9.138;2022-08-01T13:44:12;5.00;;;3.70;;
20084;SDS011;10202;48.474;9.138;2022-08-01T13:46:38;5.13;;;3.60;;
20084;SDS011;10202;48.474;9.138;2022-08-01T13:49:06;4.93;;;3.10;;
20084;SDS011;10202;48.474;9.138;2022-08-01T13:51:32;3.25;;;2.95;;
20084;SDS011;10202;48.474;9.138;2022-08-01T13:53:57;4.55;;;3.10;;
20084;SDS011;10202;48.474;9.138;2022-08-01T13:56:23;7.75;;;3.30;;
20084;SDS011;10202;48.474;9.138;2022-08-01T13:58:52;6.25;;;3.20;;
20084;SDS011;10202;48.474;9.138;2022-08-01T14:01:17;4.57;;;3.38;;
20084;SDS011;10202;48.474;9.138;2022-08-01T14:03:43;3.28;;;2.97;;
20084;SDS011;10202;48.474;9.138;2022-08-01T14:06:08;5.50;;;2.88;;
20084;SDS011;10202;48.474;9.138;2022-08-01T14:08:34;3.42;;;2.90;;
20084;SDS011;10202;48.474;9.138;2022-08-01T14:10:59;3.25;;;2.67;;
20084;SDS011;10202;48.474;9.138;2022-08-01T14:13:25;3.20;;;2.80;;
20084;SDS011;10202;48.474;9.138;2022-08-01T14:15:51;5.72;;;2.70;;
20084;SDS011;10202;48.474;9.138;2022-08-01T14:18:17;3.10;;;2.80;;
20084;SDS011;10202;48.474;9.138;2022-08-01T14:20:43;4.35;;;2.88;;
20084;SDS011;10202;48.474;9.138;2022-08-01T14:23:09;3.78;;;3.00;;
20084;SDS011;10202;48.474;9.138;2022-08-01T14:25:37;3.17;;;2.88;;
20084;SDS011;10202;48.474;9.138;2022-08-01T14:28:03;8.68;;;3.40;;
20084;SDS011;10202;48.474;9.138;2022-08-01T14:30:29;3.30;;;3.00;;
20084;SDS011;10202;48.474;9.138;2022-08-01T14:32:55;3.20;;;2.90;;
20084;SDS011;10202;48.474;9.138;2022-08-01T14:35:20;3.42;;;2.92;;
20084;SDS011;10202;48.474;9.138;2022-08-01T14:37:46;6.03;;;2.83;;
20084;SDS011;10202;48.474;9.138;2022-08-01T14:40:11;4.22;;;3.05;;
20084;SDS011;10202;48.474;9.138;2022-08-01T14:42:38;6.68;;;2.78;;
20084;SDS011;10202;48.474;9.138;2022-08-01T14:45:04;2.90;;;2.60;;
20084;SDS011;10202;48.474;9.138;2022-08-01T14:47:37;3.20;;;2.88;;
20084;SDS011;10202;48.474;9.138;2022-08-01T14:50:04;3.72;;;3.08;;
20084;SDS011;10202;48.474;9.138;2022-08-01T14:52:32;3.03;;;2.72;;
20084;SDS011;10202;48.474;9.138;2022-08-01T14:54:58;3.63;;;2.88;;
20084;SDS011;10202;48.474;9.138;2022-08-01T14:57:24;3.22;;;2.92;;
20084;SDS011;10202;48.474;9.138;2022-08-01T14:59:50;3.28;;;2.80;;
20084;SDS011;10202;48.474;9.138;2022-08-01T15:02:15;3.30;;;2.72;;
20084;SDS011;10202;48.474;9.138;2022-08-01T15:04:46;3.90;;;2.70;;
20084;SDS011;10202;48.474;9.138;2022-08-01T15:07:12;4.15;;;2.65;;
20084;SDS011;10202;48.474;9.138;2022-08-01T15:09:38;6.15;;;2.88;;
20084;SDS011;10202;48.474;9.138;2022-08-01T15:12:04;4.88;;;2.95;;
20084;SDS011;10202;48.474;9.138;2022-08-01T15:14:29;3.00;;;2.70;;
20084;SDS011;10202;48.474;9.138;2022-08-01T15:17:17;6.10;;;2.80;;
20084;SDS011;10202;48.474;9.138;2022-08-01T15:19:43;5.20;;;2.83;;
20084;SDS011;10202;48.474;9.138;2022-08-01T15:22:10;3.22;;;2.67;;
20084;SDS011;10202;48.474;9.138;2022-08-01T15:24:35;2.95;;;2.67;;
20084;SDS011;10202;48.474;9.138;2022-08-01T15:27:01;4.28;;;2.83;;
20084;SDS011;10202;48.474;9.138;2022-08-01T15:29:26;6.28;;;2.90;;
20084;SDS011;10202;48.474;9.138;2022-08-01T15:31:52;6.05;;;2.63;;
20084;SDS011;10202;48.474;9.138;2022-08-01T15:34:17;3.35;;;2.58;;
20084;SDS011;10202;48.474;9.138;2022-08-01T15:36:43;5.47;;;2.90;;
20084;SDS011;10202;48.474;9.138;2022-08-01T15:39:09;5.90;;;3.42;;
20084;SDS011;10202;48.474;9.138;2022-08-01T15:41:35;3.35;;;2.45;;
20084;SDS011;10202;48.474;9.138;2022-08-01T15:44:00;11.65;;;3.00;;
20084;SDS011;10202;48.474;9.138;2022-08-01T15:46:26;4.40;;;2.70;;
20084;SDS011;10202;48.474;9.138;2022-08-01T15:48:52;4.88;;;2.63;;
20084;SDS011;10202;48.474;9.138;2022-08-01T15:51:17;3.47;;;2.83;;
20084;SDS011;10202;48.474;9.138;2022-08-01T15:53:43;5.40;;;2.90;;
20084;SDS011;10202;48.474;9.138;2022-08-01T15:56:10;3.38;;;2.63;;
20084;SDS011;10202;48.474;9.138;2022-08-01T15:58:36;2.90;;;2.65;;